»·PEaware :: TEXAN33 KRND-KRND

TEXAN33 :: KRND-KRND

FLIGHT INFORMATION

Flight Status: Arrived
Operator: Unknown
More flights by this operator :: More flights under this callsign
Pilot: Indie I. (23354)
Aircraft: BEECH AIRCRAFT T-6A TEXAN
(TEX2)
More flights by this aircraft type
Origin: KRND Randolph AFB
United States
Destination: KRND Randolph AFB
United States
More flights between these airports :: More routes between these airports
Route: KRND FALLS AUGER KRND
File this flight plan on PilotEdge
Remarks:
Altitude:
(Current/Filed)
13,000ft
Speed:
(Current/Filed)
200kts
Departed: 30-Oct-20 11:24 AM
Arrived: 30-Oct-20 12:05 PM
Distance/Time
Traveled:
3nm/0:41
Distance/Time
To Go:
Arrived

Flight Plot

Page will automatically refresh every two minutes.

Flight plan parsing failed; only flown route is shown


Map Options




Map Legend


Flown Route
Filed Route
Departure Airport
Arrival Airport
Navaid (VOR, NDB)
Fix

Horizontal Profiles

Position Reports

Time Latitude Longitude Heading Altitude Ground
Speed
30-Oct-20 11:14 29.534883 -98.291471 184 765ft 0kts
30-Oct-20 11:15 29.534881 -98.291472 184 765ft 0kts
30-Oct-20 11:16 29.534879 -98.291472 184 765ft 0kts
30-Oct-20 11:17 29.534876 -98.291472 184 765ft 0kts
30-Oct-20 11:18 29.534874 -98.291472 184 765ft 0kts
30-Oct-20 11:19 29.534872 -98.291473 184 765ft 0kts
30-Oct-20 11:20 29.534870 -98.291473 184 765ft 0kts
30-Oct-20 11:21 29.534868 -98.291473 184 765ft 0kts
30-Oct-20 11:22 29.534880 -98.292801 231 765ft 0kts
30-Oct-20 11:23 29.532501 -98.291415 151 765ft 81kts
30-Oct-20 11:24 29.493240 -98.277463 170 2775ft 173kts
30-Oct-20 11:25 29.444201 -98.261274 160 5618ft 179kts
30-Oct-20 11:26 29.394433 -98.246573 168 8462ft 191kts
30-Oct-20 11:27 29.342600 -98.233126 166 11269ft 194kts
30-Oct-20 11:28 29.286580 -98.214667 161 12992ft 238kts
30-Oct-20 11:29 29.218839 -98.190044 162 13041ft 259kts
30-Oct-20 11:30 29.149186 -98.166018 162 13073ft 259kts
30-Oct-20 11:31 29.104066 -98.109460 93 13033ft 259kts
30-Oct-20 11:32 29.120141 -98.029789 74 12179ft 255kts
30-Oct-20 11:33 29.134180 -98.002333 269 10074ft 249kts
30-Oct-20 11:34 29.080008 -98.041391 183 10426ft 246kts
30-Oct-20 11:35 29.121730 -98.049890 338 10340ft 238kts
30-Oct-20 11:36 29.094886 -98.034245 162 10275ft 242kts
30-Oct-20 11:37 29.102967 -98.033716 334 10475ft 250kts
30-Oct-20 11:38 29.086302 -98.019802 115 10185ft 256kts
30-Oct-20 11:39 29.088788 -97.977716 341 10845ft 241kts
30-Oct-20 11:40 29.143683 -98.021894 287 10275ft 266kts
30-Oct-20 11:41 29.111748 -98.027849 358 6575ft 275kts
30-Oct-20 11:42 29.175986 -98.006654 19 6116ft 228kts
30-Oct-20 11:43 29.235771 -98.023446 329 5339ft 218kts
30-Oct-20 11:44 29.281345 -98.066322 319 3349ft 203kts
30-Oct-20 11:45 29.328371 -98.105988 324 2284ft 213kts
30-Oct-20 11:46 29.375751 -98.148053 317 2349ft 217kts
30-Oct-20 11:47 29.409938 -98.204821 295 1873ft 221kts
30-Oct-20 11:48 29.437213 -98.267977 296 1810ft 220kts
30-Oct-20 11:49 29.471325 -98.323534 331 1794ft 217kts
30-Oct-20 11:50 29.527709 -98.328486 327 1799ft 224kts
30-Oct-20 11:51 29.561618 -98.313125 140 1808ft 214kts
30-Oct-20 11:53 29.529910 -98.306558 328 1732ft 159kts
30-Oct-20 11:54 29.537057 -98.294834 148 819ft 114kts
30-Oct-20 11:55 29.521569 -98.299319 318 1724ft 178kts
30-Oct-20 11:56 29.547056 -98.300932 152 1118ft 123kts
30-Oct-20 11:57 29.517041 -98.281874 177 1219ft 159kts
30-Oct-20 11:58 29.536917 -98.312634 329 1776ft 139kts
30-Oct-20 11:59 29.533858 -98.292588 150 766ft 98kts
30-Oct-20 12:00 29.497801 -98.279924 243 1268ft 197kts
30-Oct-20 12:01 29.520292 -98.324162 332 1832ft 215kts
30-Oct-20 12:02 29.562425 -98.321916 92 1719ft 218kts
30-Oct-20 12:03 29.525663 -98.302015 314 1758ft 166kts
30-Oct-20 12:04 29.542199 -98.297848 150 959ft 122kts
30-Oct-20 12:05 29.529947 -98.289759 153 765ft 0kts
30-Oct-20 12:06 29.529945 -98.289758 153 765ft 0kts
30-Oct-20 12:06 29.534626 -98.292989 150 766ft 0kts
30-Oct-20 12:08 29.534626 -98.292989 150 766ft 0kts
30-Oct-20 12:08 29.534626 -98.292989 150 766ft 0kts
30-Oct-20 12:09 29.534626 -98.292989 150 766ft 0kts
30-Oct-20 12:10 29.534626 -98.292989 150 766ft 0kts
30-Oct-20 12:11 29.534626 -98.292989 150 766ft 0kts
30-Oct-20 12:12 29.534145 -98.292672 150 765ft 0kts
30-Oct-20 12:13 29.530803 -98.290396 149 765ft 98kts
30-Oct-20 12:14 29.518545 -98.282418 149 1129ft 161kts
30-Oct-20 12:15 29.515902 -98.280609 149 1190ft 172kts
30-Oct-20 12:16 29.491090 -98.319450 282 2370ft 227kts
30-Oct-20 12:17 29.471225 -98.341223 59 1884ft 223kts
30-Oct-20 12:18 29.513170 -98.326987 10 1845ft 219kts

Navigation Log

Ident Type
Flight plan parsing failed, navigation log unavailable